createdAt,value
2023-09-22T00:00:59.180Z,18.50
2023-09-22T00:03:28.142Z,18.40
2023-09-22T00:05:56.180Z,18.40
2023-09-22T00:08:24.275Z,18.30
2023-09-22T00:10:52.273Z,18.20
2023-09-22T00:13:20.299Z,18.20
2023-09-22T00:15:48.313Z,18.10
2023-09-22T00:18:17.859Z,18.10
2023-09-22T00:20:46.768Z,18.10
2023-09-22T00:23:16.212Z,18.10
2023-09-22T00:25:46.719Z,18.10
2023-09-22T00:28:15.468Z,18.10
2023-09-22T00:30:43.662Z,18.10
2023-09-22T00:33:12.311Z,18.10
2023-09-22T00:35:41.864Z,18.00
2023-09-22T00:38:11.674Z,18.00
2023-09-22T00:40:39.686Z,18.00
2023-09-22T00:43:10.430Z,18.10
2023-09-22T00:45:44.186Z,18.10
2023-09-22T00:48:17.207Z,18.10
2023-09-22T00:50:46.592Z,18.10
2023-09-22T00:53:14.613Z,18.00
2023-09-22T00:55:42.910Z,18.00
2023-09-22T00:58:11.035Z,18.00
2023-09-22T01:00:42.412Z,17.90
2023-09-22T01:03:10.888Z,17.90
2023-09-22T01:05:38.959Z,17.90
2023-09-22T01:08:08.389Z,17.90
2023-09-22T01:10:40.001Z,17.90
2023-09-22T01:13:08.389Z,17.90
2023-09-22T01:15:38.003Z,17.80
2023-09-22T01:18:06.753Z,17.80
2023-09-22T01:20:40.408Z,17.70
2023-09-22T01:23:10.186Z,17.70
2023-09-22T01:25:38.591Z,17.60
2023-09-22T01:28:06.962Z,17.50
2023-09-22T01:30:35.266Z,17.50
2023-09-22T01:35:47.705Z,17.50
2023-09-22T01:38:19.667Z,17.50
2023-09-22T01:40:47.999Z,17.50
2023-09-22T01:43:18.080Z,17.50
2023-09-22T01:45:46.507Z,17.40
2023-09-22T01:48:14.772Z,17.40
2023-09-22T01:50:43.347Z,17.40
2023-09-22T01:53:12.635Z,17.40
2023-09-22T01:55:43.258Z,17.40
2023-09-22T01:58:12.440Z,17.40
2023-09-22T02:00:40.944Z,17.40
2023-09-22T02:03:10.152Z,17.40
2023-09-22T02:05:38.280Z,17.40
2023-09-22T02:08:06.816Z,17.40
2023-09-22T02:10:35.441Z,17.40
2023-09-22T02:13:05.672Z,17.30
2023-09-22T02:15:33.790Z,17.30
2023-09-22T02:18:01.901Z,17.30
2023-09-22T02:20:31.341Z,17.40
2023-09-22T02:23:00.044Z,17.40
2023-09-22T02:25:28.249Z,17.30
2023-09-22T02:27:57.899Z,17.30
2023-09-22T02:30:27.618Z,17.30
2023-09-22T02:32:56.109Z,17.30
2023-09-22T02:35:24.492Z,17.30
2023-09-22T02:37:52.660Z,17.30
2023-09-22T02:40:20.854Z,17.30
2023-09-22T02:42:49.482Z,17.30
2023-09-22T02:45:18.113Z,17.30
2023-09-22T02:47:49.190Z,17.30
2023-09-22T02:50:19.803Z,17.30
2023-09-22T02:52:48.550Z,17.30
2023-09-22T02:55:18.011Z,17.20
2023-09-22T02:57:48.301Z,17.20
2023-09-22T03:00:18.947Z,17.20
2023-09-22T03:02:49.679Z,17.20
2023-09-22T03:05:19.601Z,17.20
2023-09-22T03:07:49.071Z,17.20
2023-09-22T03:10:17.229Z,17.20
2023-09-22T03:12:45.686Z,17.10
2023-09-22T03:15:14.439Z,17.10
2023-09-22T03:17:43.972Z,17.10
2023-09-22T03:20:14.932Z,17.00
2023-09-22T03:22:43.423Z,17.00
2023-09-22T03:25:12.336Z,17.00
2023-09-22T03:27:40.702Z,17.00
2023-09-22T03:30:10.494Z,17.00
2023-09-22T03:32:40.311Z,17.00
2023-09-22T03:35:09.704Z,17.00
2023-09-22T03:37:41.428Z,16.90
2023-09-22T03:40:16.313Z,16.90
2023-09-22T03:42:45.969Z,17.00
2023-09-22T03:45:14.899Z,16.90
2023-09-22T03:47:43.408Z,16.90
2023-09-22T03:50:12.555Z,16.90
2023-09-22T03:52:42.650Z,16.90
2023-09-22T03:55:12.959Z,16.90
2023-09-22T03:57:41.233Z,16.90
2023-09-22T04:00:18.674Z,16.90
2023-09-22T04:02:47.451Z,16.90
2023-09-22T04:05:16.922Z,16.90
2023-09-22T04:07:46.480Z,17.00
2023-09-22T04:10:14.519Z,17.00
2023-09-22T04:12:42.549Z,17.00
2023-09-22T04:15:11.358Z,17.00
2023-09-22T04:17:40.360Z,17.00
2023-09-22T04:20:10.407Z,17.00
2023-09-22T04:22:38.915Z,17.00
2023-09-22T04:25:13.075Z,17.10
2023-09-22T04:27:44.600Z,17.00
2023-09-22T04:30:17.024Z,17.00
2023-09-22T04:32:45.532Z,17.00
2023-09-22T04:35:14.188Z,17.00
2023-09-22T04:37:42.544Z,17.00
2023-09-22T04:40:24.485Z,17.00
2023-09-22T04:42:52.987Z,17.00
2023-09-22T04:45:22.908Z,17.00
2023-09-22T04:47:53.209Z,17.00
2023-09-22T04:50:22.456Z,16.90
2023-09-22T04:52:51.659Z,16.90
2023-09-22T04:55:21.496Z,16.80
2023-09-22T04:57:50.085Z,16.80
2023-09-22T05:00:18.956Z,16.80
2023-09-22T05:02:47.583Z,16.80
2023-09-22T05:05:17.819Z,16.80
2023-09-22T05:07:46.024Z,16.80
2023-09-22T05:10:14.607Z,16.80
2023-09-22T05:12:44.127Z,16.80
2023-09-22T05:15:12.388Z,16.80
2023-09-22T05:17:40.397Z,16.70
2023-09-22T05:20:13.628Z,16.70
2023-09-22T05:22:41.875Z,16.70
2023-09-22T05:25:11.009Z,16.70
2023-09-22T05:27:40.723Z,16.70
2023-09-22T05:30:12.092Z,16.70
2023-09-22T05:32:40.485Z,16.80
2023-09-22T05:35:09.259Z,16.70
2023-09-22T05:37:37.254Z,16.70
2023-09-22T05:40:12.066Z,16.70
2023-09-22T05:42:40.375Z,16.70
2023-09-22T05:45:10.706Z,16.70
2023-09-22T05:47:38.876Z,16.70
2023-09-22T05:50:10.763Z,16.70
2023-09-22T05:52:42.545Z,16.70
2023-09-22T05:55:11.721Z,16.70
2023-09-22T05:57:39.839Z,16.70
2023-09-22T06:00:17.068Z,16.70
2023-09-22T06:02:51.179Z,16.70
2023-09-22T06:05:20.361Z,16.70
2023-09-22T06:07:48.498Z,16.70
2023-09-22T06:10:16.514Z,16.70
2023-09-22T06:12:44.841Z,16.70
2023-09-22T06:15:14.198Z,16.70
2023-09-22T06:17:42.279Z,16.70
2023-09-22T06:20:16.626Z,16.70
2023-09-22T06:22:46.526Z,16.70
2023-09-22T06:25:15.590Z,16.70
2023-09-22T06:27:44.796Z,16.70
2023-09-22T06:30:13.629Z,16.70
2023-09-22T06:32:43.123Z,16.70
2023-09-22T06:35:13.279Z,16.70
2023-09-22T06:37:42.871Z,16.70
2023-09-22T06:40:13.976Z,16.70
2023-09-22T06:42:43.142Z,16.70
2023-09-22T06:45:15.185Z,16.70
2023-09-22T06:47:45.109Z,16.80
2023-09-22T06:50:15.235Z,16.70
2023-09-22T06:52:43.399Z,16.70
2023-09-22T06:55:14.843Z,16.70
2023-09-22T06:57:43.606Z,16.70
2023-09-22T07:00:20.375Z,16.70
2023-09-22T07:02:49.737Z,16.70
2023-09-22T07:05:21.680Z,16.70
2023-09-22T07:07:51.303Z,16.70
2023-09-22T07:10:19.700Z,16.70
2023-09-22T07:12:47.942Z,16.70
2023-09-22T07:15:16.010Z,16.60
2023-09-22T07:17:45.070Z,16.60
2023-09-22T07:20:15.442Z,16.60
2023-09-22T07:22:46.427Z,16.60
2023-09-22T07:25:15.525Z,16.60
2023-09-22T07:27:45.654Z,16.60
2023-09-22T07:30:15.354Z,16.50
2023-09-22T07:32:44.102Z,16.50
2023-09-22T07:35:12.299Z,16.50
2023-09-22T07:37:41.209Z,16.50
2023-09-22T07:40:12.157Z,16.50
2023-09-22T07:42:43.619Z,16.50
2023-09-22T07:45:13.471Z,16.50
2023-09-22T07:47:41.754Z,16.50
2023-09-22T07:50:10.541Z,16.50
2023-09-22T07:52:38.648Z,16.60
2023-09-22T07:55:07.736Z,16.60
2023-09-22T07:57:37.246Z,16.60
2023-09-22T08:00:10.272Z,16.70
2023-09-22T08:02:38.474Z,16.70
2023-09-22T08:05:07.361Z,16.70
2023-09-22T08:07:35.358Z,16.70
2023-09-22T08:10:07.352Z,16.70
2023-09-22T08:12:37.234Z,16.70
2023-09-22T08:15:06.219Z,16.70
2023-09-22T08:17:34.342Z,16.70
2023-09-22T08:20:02.621Z,16.70
2023-09-22T08:22:30.624Z,16.70
2023-09-22T08:24:58.807Z,16.80
2023-09-22T08:27:31.327Z,16.80
2023-09-22T08:30:00.995Z,16.80
2023-09-22T08:32:29.104Z,16.80
2023-09-22T08:34:57.127Z,16.80
2023-09-22T08:37:25.145Z,16.80
2023-09-22T08:39:53.713Z,16.90
2023-09-22T08:42:21.969Z,16.90
2023-09-22T08:44:50.625Z,16.90
2023-09-22T08:47:23.479Z,16.90
2023-09-22T08:49:53.536Z,17.00
2023-09-22T08:52:24.026Z,17.00
2023-09-22T08:54:52.443Z,17.00
2023-09-22T08:57:20.631Z,17.00
2023-09-22T08:59:48.640Z,17.00
2023-09-22T09:02:17.139Z,17.00
2023-09-22T09:04:46.627Z,17.10
2023-09-22T09:07:18.170Z,17.10
2023-09-22T09:09:48.986Z,17.10
2023-09-22T09:12:17.312Z,17.10
2023-09-22T09:14:48.095Z,17.10
2023-09-22T09:17:24.321Z,17.20
2023-09-22T09:19:58.071Z,17.20
2023-09-22T09:22:34.576Z,17.30
2023-09-22T09:25:03.883Z,17.30
2023-09-22T09:27:32.353Z,17.40
2023-09-22T09:30:01.240Z,17.40
2023-09-22T09:32:31.034Z,17.50
2023-09-22T09:35:00.533Z,17.50
2023-09-22T09:37:28.646Z,17.60
2023-09-22T09:39:58.931Z,17.60
2023-09-22T09:42:27.788Z,17.50
2023-09-22T09:44:58.326Z,17.50
2023-09-22T09:47:30.603Z,17.50
2023-09-22T09:50:00.971Z,17.50
2023-09-22T09:52:32.741Z,17.50
2023-09-22T09:55:11.441Z,17.50
2023-09-22T09:57:41.462Z,17.60
2023-09-22T10:00:18.763Z,17.60
2023-09-22T10:02:47.874Z,17.70
2023-09-22T10:05:21.645Z,17.70
2023-09-22T10:07:51.196Z,17.70
2023-09-22T10:10:22.001Z,17.70
2023-09-22T10:12:50.818Z,17.70
2023-09-22T10:15:55.469Z,17.70
2023-09-22T10:18:24.989Z,17.70
2023-09-22T10:20:54.486Z,17.80
2023-09-22T10:23:24.722Z,17.80
2023-09-22T10:26:21.065Z,17.80
2023-09-22T10:28:49.200Z,17.90
2023-09-22T10:31:19.200Z,18.00
2023-09-22T10:33:48.473Z,18.00
2023-09-22T10:39:10.208Z,18.10
2023-09-22T10:41:38.336Z,18.20
2023-09-22T10:44:06.736Z,18.20
2023-09-22T10:46:35.325Z,18.20
2023-09-22T10:49:03.423Z,18.20
2023-09-22T10:51:44.490Z,18.30
2023-09-22T10:54:14.323Z,18.30
2023-09-22T10:56:44.832Z,18.30
2023-09-22T10:59:13.424Z,18.30
2023-09-22T11:01:47.488Z,18.30
2023-09-22T11:04:18.639Z,18.30
2023-09-22T11:06:47.677Z,18.30
2023-09-22T11:09:17.103Z,18.40
2023-09-22T11:11:47.862Z,18.40
2023-09-22T11:14:20.393Z,18.50
2023-09-22T11:16:50.370Z,18.50
2023-09-22T11:19:18.705Z,18.50
2023-09-22T11:21:47.665Z,18.60
2023-09-22T11:24:17.041Z,18.60
2023-09-22T11:26:46.116Z,18.60
2023-09-22T11:29:17.361Z,18.60
2023-09-22T11:31:50.929Z,18.60
2023-09-22T11:34:21.267Z,18.70
2023-09-22T11:36:50.204Z,18.70
2023-09-22T11:39:37.602Z,18.70
2023-09-22T11:42:05.779Z,18.80
2023-09-22T11:44:34.223Z,18.80
2023-09-22T11:47:03.454Z,18.80
2023-09-22T11:49:37.808Z,18.80
2023-09-22T11:52:06.158Z,18.90
2023-09-22T11:54:37.635Z,18.90
2023-09-22T11:57:06.777Z,19.00
2023-09-22T11:59:35.637Z,19.00
2023-09-22T12:02:06.727Z,19.00
2023-09-22T12:04:39.179Z,19.10
2023-09-22T12:07:08.108Z,19.10
2023-09-22T12:09:39.242Z,19.20
2023-09-22T12:12:07.890Z,19.20
2023-09-22T12:14:36.252Z,19.30
2023-09-22T12:17:04.338Z,19.30
2023-09-22T12:19:32.433Z,19.40
2023-09-22T12:22:00.430Z,19.40
2023-09-22T12:24:28.470Z,19.50
2023-09-22T12:26:57.837Z,19.60
2023-09-22T12:29:26.155Z,19.70
2023-09-22T12:31:54.210Z,19.70
2023-09-22T12:34:22.270Z,19.80
2023-09-22T12:36:51.118Z,19.90
2023-09-22T12:39:19.308Z,19.90
2023-09-22T12:41:48.087Z,20.00
2023-09-22T12:44:17.510Z,20.10
2023-09-22T12:46:45.561Z,20.20
2023-09-22T12:49:13.669Z,20.30
2023-09-22T12:51:42.588Z,20.40
2023-09-22T12:54:10.908Z,20.40
2023-09-22T12:56:38.911Z,20.50
2023-09-22T12:59:08.504Z,20.60
2023-09-22T13:01:38.263Z,20.60
2023-09-22T13:04:06.984Z,20.70
2023-09-22T13:06:35.716Z,20.70
2023-09-22T13:09:03.756Z,20.80
2023-09-22T13:11:31.718Z,20.80
2023-09-22T13:13:59.780Z,20.70
2023-09-22T13:16:28.006Z,20.80
2023-09-22T13:18:57.419Z,20.80
2023-09-22T13:21:26.262Z,20.80
2023-09-22T13:23:54.281Z,20.90
2023-09-22T13:26:23.855Z,21.00
2023-09-22T13:28:56.421Z,21.00
2023-09-22T13:31:25.009Z,21.00
2023-09-22T13:33:53.161Z,21.00
2023-09-22T13:36:22.630Z,20.90
2023-09-22T13:38:50.698Z,20.80
2023-09-22T13:41:18.689Z,20.70
2023-09-22T13:43:47.018Z,20.60
2023-09-22T13:46:16.177Z,20.50
2023-09-22T13:48:46.172Z,20.50
2023-09-22T13:51:14.550Z,20.50
2023-09-22T13:53:44.168Z,20.40
2023-09-22T13:56:17.415Z,20.30
2023-09-22T13:58:45.932Z,20.20
2023-09-22T14:01:14.766Z,20.20
2023-09-22T14:03:43.992Z,20.10
2023-09-22T14:06:15.090Z,20.10
2023-09-22T14:08:46.482Z,20.10
2023-09-22T14:11:15.012Z,20.10
2023-09-22T14:13:43.308Z,20.00
2023-09-22T14:16:12.382Z,20.00
2023-09-22T14:18:41.215Z,20.00
2023-09-22T14:21:09.438Z,20.10
2023-09-22T14:23:37.575Z,20.10
2023-09-22T14:26:06.942Z,20.30
2023-09-22T14:28:35.542Z,20.30
2023-09-22T14:31:05.627Z,20.40
2023-09-22T14:33:34.079Z,20.40
2023-09-22T14:36:07.348Z,20.40
2023-09-22T14:38:35.412Z,20.30
2023-09-22T14:41:03.497Z,20.30
2023-09-22T14:43:32.984Z,20.30
2023-09-22T14:46:01.168Z,20.30
2023-09-22T14:48:29.276Z,20.40
2023-09-22T14:51:01.478Z,20.40
2023-09-22T14:53:29.832Z,20.30
2023-09-22T14:55:59.934Z,20.40
2023-09-22T14:58:28.335Z,20.40
2023-09-22T15:00:57.709Z,20.40
2023-09-22T15:03:26.365Z,20.50
2023-09-22T15:05:54.802Z,20.50
2023-09-22T15:08:22.896Z,20.50
2023-09-22T15:10:56.120Z,20.50
2023-09-22T15:13:24.440Z,20.40
2023-09-22T15:15:52.544Z,20.40
2023-09-22T15:18:22.112Z,20.30
2023-09-22T15:20:50.118Z,20.30
2023-09-22T15:23:18.219Z,20.20
2023-09-22T15:25:49.808Z,20.10
2023-09-22T15:28:17.988Z,20.00
2023-09-22T15:30:46.071Z,19.90
2023-09-22T15:33:14.062Z,19.90
2023-09-22T15:35:43.630Z,19.80
2023-09-22T15:38:14.124Z,19.70
2023-09-22T15:40:58.991Z,19.70
2023-09-22T15:43:27.753Z,19.70
2023-09-22T15:45:56.559Z,19.70
2023-09-22T15:48:24.832Z,19.70
2023-09-22T15:50:54.674Z,19.70
2023-09-22T15:53:24.393Z,19.60
2023-09-22T15:55:53.108Z,19.50
2023-09-22T15:58:20.351Z,19.40
2023-09-22T16:00:48.605Z,19.30
2023-09-22T16:03:18.388Z,19.20
2023-09-22T16:05:47.741Z,19.20
2023-09-22T16:08:17.306Z,19.10
2023-09-22T16:10:45.810Z,19.10
2023-09-22T16:15:48.289Z,19.00
2023-09-22T16:18:16.440Z,19.00
2023-09-22T16:20:45.284Z,19.00
2023-09-22T16:23:13.600Z,19.00
2023-09-22T16:25:43.040Z,18.90
2023-09-22T16:28:11.120Z,18.90
2023-09-22T16:30:39.525Z,18.90
2023-09-22T16:33:07.665Z,18.90
2023-09-22T16:35:35.939Z,18.80
2023-09-22T16:38:06.858Z,18.80
2023-09-22T16:40:35.380Z,18.70
2023-09-22T16:43:05.020Z,18.70
2023-09-22T16:45:33.025Z,18.70
2023-09-22T16:48:01.370Z,18.70
2023-09-22T16:50:29.701Z,18.70
2023-09-22T16:52:58.003Z,18.60
2023-09-22T16:55:26.299Z,18.60
2023-09-22T16:57:54.360Z,18.50
2023-09-22T17:00:24.591Z,18.40
2023-09-22T17:02:54.660Z,18.40
2023-09-22T17:05:23.204Z,18.40
2023-09-22T17:07:52.040Z,18.30
2023-09-22T17:10:20.308Z,18.30
2023-09-22T17:12:48.819Z,18.30
2023-09-22T17:15:17.119Z,18.30
2023-09-22T17:17:46.575Z,18.30
2023-09-22T17:20:14.701Z,18.20
2023-09-22T17:22:42.774Z,18.20
2023-09-22T17:25:11.892Z,18.20
2023-09-22T17:27:42.165Z,18.20
2023-09-22T17:30:11.308Z,18.10
2023-09-22T17:32:39.437Z,18.10
2023-09-22T17:35:10.026Z,18.00
2023-09-22T17:37:38.325Z,18.00
2023-09-22T17:40:07.383Z,18.00
2023-09-22T17:42:35.704Z,18.00
2023-09-22T17:45:05.736Z,18.00
2023-09-22T17:47:33.821Z,18.00
2023-09-22T17:50:01.882Z,17.90
2023-09-22T17:52:31.556Z,17.90
2023-09-22T17:55:01.926Z,17.90
2023-09-22T17:57:30.639Z,17.80
2023-09-22T17:59:58.674Z,17.90
2023-09-22T18:02:27.419Z,17.80
2023-09-22T18:04:55.716Z,17.80
2023-09-22T18:07:23.790Z,17.80
2023-09-22T18:09:53.403Z,17.70
2023-09-22T18:12:21.468Z,17.70
2023-09-22T18:14:49.525Z,17.70
2023-09-22T18:17:17.758Z,17.60
2023-09-22T18:19:45.888Z,17.60
2023-09-22T18:22:13.981Z,17.60
2023-09-22T18:24:41.975Z,17.60
2023-09-22T18:27:11.323Z,17.60
2023-09-22T18:29:41.370Z,17.50
2023-09-22T18:32:09.489Z,17.50
2023-09-22T18:34:38.722Z,17.50
2023-09-22T18:37:06.807Z,17.50
2023-09-22T18:39:36.986Z,17.50
2023-09-22T18:42:05.740Z,17.40
2023-09-22T18:44:35.811Z,17.40
2023-09-22T18:47:05.069Z,17.40
2023-09-22T18:49:34.521Z,17.40
2023-09-22T18:52:03.950Z,17.40
2023-09-22T18:54:31.948Z,17.40
2023-09-22T18:57:01.623Z,17.30
2023-09-22T18:59:29.614Z,17.30
2023-09-22T19:01:59.563Z,17.30
2023-09-22T19:04:27.716Z,17.20
2023-09-22T19:06:56.187Z,17.20
2023-09-22T19:09:24.276Z,17.20
2023-09-22T19:11:52.261Z,17.20
2023-09-22T19:14:20.522Z,17.20
2023-09-22T19:16:48.725Z,17.10
2023-09-22T19:19:18.159Z,17.10
2023-09-22T19:21:46.624Z,17.20
2023-09-22T19:24:14.808Z,17.10
2023-09-22T19:26:43.453Z,17.10
2023-09-22T19:29:11.453Z,17.10
2023-09-22T19:31:39.571Z,17.10
2023-09-22T19:34:08.258Z,17.10
2023-09-22T19:36:37.701Z,17.10
2023-09-22T19:39:06.067Z,17.10
2023-09-22T19:41:34.161Z,17.10
2023-09-22T19:44:02.381Z,17.10
2023-09-22T19:46:30.764Z,17.10
2023-09-22T19:48:59.822Z,17.10
2023-09-22T19:51:28.135Z,17.10
2023-09-22T19:53:57.545Z,17.10
2023-09-22T19:56:28.569Z,17.10
2023-09-22T19:58:57.276Z,17.10
2023-09-22T20:01:26.853Z,17.10
2023-09-22T20:03:56.158Z,17.00
2023-09-22T20:06:24.594Z,17.00
2023-09-22T20:08:53.581Z,16.90
2023-09-22T20:11:24.074Z,16.90
2023-09-22T20:13:52.229Z,16.90
2023-09-22T20:16:20.360Z,16.90
2023-09-22T20:18:49.320Z,16.80
2023-09-22T20:21:17.332Z,16.80
2023-09-22T20:23:46.494Z,16.80
2023-09-22T20:26:16.210Z,16.70
2023-09-22T20:28:46.035Z,16.70
2023-09-22T20:31:15.163Z,16.70
2023-09-22T20:33:43.268Z,16.70
2023-09-22T20:36:13.403Z,16.60
2023-09-22T20:38:45.458Z,16.60
2023-09-22T20:41:14.001Z,16.50
2023-09-22T20:43:43.524Z,16.50
2023-09-22T20:46:13.106Z,16.50
2023-09-22T20:48:41.458Z,16.40
2023-09-22T20:51:09.538Z,16.40
2023-09-22T20:53:38.813Z,16.40
2023-09-22T20:56:11.709Z,16.30
2023-09-22T20:58:40.218Z,16.30
2023-09-22T21:01:08.448Z,16.30
2023-09-22T21:03:37.902Z,16.20
2023-09-22T21:06:05.998Z,16.20
2023-09-22T21:08:34.328Z,16.20
2023-09-22T21:11:02.488Z,16.20
2023-09-22T21:13:31.115Z,16.10
2023-09-22T21:15:59.265Z,16.10
2023-09-22T21:18:28.449Z,16.10
2023-09-22T21:21:03.380Z,16.10
2023-09-22T21:23:31.466Z,16.00
2023-09-22T21:25:59.654Z,16.00
2023-09-22T21:28:27.716Z,15.90
2023-09-22T21:30:57.925Z,15.90
2023-09-22T21:33:26.052Z,15.90
2023-09-22T21:35:54.414Z,15.90
2023-09-22T21:38:23.805Z,15.90
2023-09-22T21:40:52.896Z,15.80
2023-09-22T21:43:22.297Z,15.80
2023-09-22T21:45:50.358Z,15.80
2023-09-22T21:48:18.719Z,15.80
2023-09-22T21:50:46.759Z,15.80
2023-09-22T21:53:14.745Z,15.70
2023-09-22T21:55:45.686Z,15.70
2023-09-22T21:58:13.744Z,15.70
2023-09-22T22:00:43.257Z,15.70
2023-09-22T22:03:11.950Z,15.60
2023-09-22T22:05:40.693Z,15.60
2023-09-22T22:08:18.596Z,15.60
2023-09-22T22:10:49.880Z,15.60
2023-09-22T22:13:21.530Z,15.50
2023-09-22T22:15:50.250Z,15.50
2023-09-22T22:18:18.683Z,15.50
2023-09-22T22:20:47.009Z,15.50
2023-09-22T22:23:16.324Z,15.40
2023-09-22T22:25:46.862Z,15.40
2023-09-22T22:28:17.241Z,15.40
2023-09-22T22:30:45.474Z,15.40
2023-09-22T22:33:15.708Z,15.30
2023-09-22T22:35:43.923Z,15.30
2023-09-22T22:38:12.035Z,15.30
2023-09-22T22:40:40.146Z,15.30
2023-09-22T22:43:08.207Z,15.30
2023-09-22T22:45:38.175Z,15.30
2023-09-22T22:48:07.990Z,15.20
2023-09-22T22:50:36.583Z,15.20
2023-09-22T22:53:05.941Z,15.20
2023-09-22T22:55:34.229Z,15.10
2023-09-22T22:58:03.491Z,15.10
2023-09-22T23:00:32.556Z,15.10
2023-09-22T23:03:02.938Z,15.10
2023-09-22T23:05:31.710Z,15.10
2023-09-22T23:07:59.824Z,15.00
2023-09-22T23:10:29.026Z,15.00
2023-09-22T23:12:57.027Z,15.00
2023-09-22T23:15:25.667Z,14.90
2023-09-22T23:17:55.961Z,15.00
2023-09-22T23:20:35.161Z,14.90
2023-09-22T23:23:03.648Z,14.90
2023-09-22T23:25:34.923Z,14.90
2023-09-22T23:28:06.091Z,14.90
2023-09-22T23:30:35.285Z,14.80
2023-09-22T23:33:04.466Z,14.80
2023-09-22T23:35:34.030Z,14.80
2023-09-22T23:38:02.302Z,14.80
2023-09-22T23:40:31.020Z,14.80
2023-09-22T23:42:59.568Z,14.80
2023-09-22T23:45:28.595Z,14.70
2023-09-22T23:47:57.016Z,14.70
2023-09-22T23:50:26.928Z,14.70
2023-09-22T23:52:56.980Z,14.70
2023-09-22T23:55:25.133Z,14.70
2023-09-22T23:57:55.924Z,14.70
